Time;durP1;ratioP1;P1;durP2;ratioP2;P2;SDS_P1;SDS_P2;PMS_P1;PMS_P2;Temp;Humidity;BMP_temperature;BMP_pressure;BME280_temperature;BME280_humidity;BME280_pressure;Samples;Min_cycle;Max_cycle;Signal;HPM_P1;HPM_P2
2022/01/08 00:01:39;;;;;;;;;;;;;;;;;;4988591;28;20504;-52
2022/01/08 00:04:05;;;;;;;;;;;;;;;;;;4988633;28;20015;-55
2022/01/08 00:06:30;;;;;;;;;;;;;;;;;;4987652;28;20506;-53
2022/01/08 00:08:56;;;;;;;;;;;;;;;;;;4986848;28;19960;-51
2022/01/08 00:11:25;;;;;;;;;;;;;;;;;;4988946;28;20466;-54
2022/01/08 00:13:50;;;;;;;;;;;;;;;;;;4987801;28;20400;-55
2022/01/08 00:16:16;;;;;;;;;;;;;;;;;;4991604;28;20847;-53
2022/01/08 00:18:41;;;;;;;;;;;;;;;;;;4992606;28;20414;-55
2022/01/08 00:21:06;;;;;;;;;;;;;;;;;;4993721;28;20282;-51
2022/01/08 00:23:32;;;;;;;;;;;;;;;;;;4988766;28;19950;-51
2022/01/08 00:26:00;;;;;;;;;;;;;;;;;;4995444;28;20009;-51
2022/01/08 00:28:26;;;;;;;;;;;;;;;;;;4996048;28;19921;-52
2022/01/08 00:30:51;;;;;;;;;;;;;;;;;;4994145;28;19936;-52
2022/01/08 00:33:17;;;;;;;;;;;;;;;;;;4992493;28;19926;-53
2022/01/08 00:35:42;;;;;;;;;;;;;;;;;;4993730;28;19925;-55
2022/01/08 00:38:07;;;;;;;;;;;;;;;;;;4990172;28;19957;-53
2022/01/08 00:40:33;;;;;;;;;;;;;;;;;;4990346;28;19921;-55
2022/01/08 00:42:58;;;;;;;;;;;;;;;;;;4990394;28;19926;-52
2022/01/08 00:45:24;;;;;;;;;;;;;;;;;;4997638;28;19952;-56
2022/01/08 00:47:49;;;;;;;;;;;;;;;;;;4994782;28;19931;-55
2022/01/08 00:50:14;;;;;;;;;;;;;;;;;;4993048;28;20032;-54
2022/01/08 00:52:40;;;;;;;;;;;;;;;;;;4987631;28;19976;-55
2022/01/08 00:55:05;;;;;;;;;;;;;;;;;;4989974;28;19921;-54
2022/01/08 00:57:30;;;;;;;;;;;;;;;;;;4989066;28;19929;-55
2022/01/08 00:59:56;;;;;;;;;;;;;;;;;;4991629;28;20417;-54
2022/01/08 01:02:21;;;;;;;;;;;;;;;;;;4989363;28;19925;-54
2022/01/08 01:04:47;;;;;;;;;;;;;;;;;;4990755;28;19996;-54
2022/01/08 01:07:13;;;;;;;;;;;;;;;;;;4989382;28;19929;-54
2022/01/08 01:09:38;;;;;;;;;;;;;;;;;;4989140;28;19926;-55
2022/01/08 01:12:04;;;;;;;;;;;;;;;;;;4990275;28;20032;-55
2022/01/08 01:14:29;;;;;;;;;;;;;;;;;;4987500;28;19926;-55
2022/01/08 01:16:54;;;;;;;;;;;;;;;;;;4989296;28;19935;-55
2022/01/08 01:19:21;;;;;;;;;;;;;;;;;;4988891;28;19984;-53
2022/01/08 01:21:46;;;;;;;;;;;;;;;;;;4990707;28;19922;-54
2022/01/08 01:24:17;;;;;;;;;;;;;;;;;;4988729;28;19936;-55
2022/01/08 01:27:01;;;;;;;;;;;;;;;;;;4988493;28;20858;-54
2022/01/08 01:29:39;;;;;;;;;;;;;;;;;;4988033;28;19928;-53
2022/01/08 01:48:12;;;;;;;;;;;;;;;;;;4988652;28;20365;-53
2022/01/08 01:50:37;;;;;;;;;;;;;;;;;;4989670;28;20020;-54
2022/01/08 01:53:03;;;;;;;;;;;;;;;;;;4988405;28;20374;-52
2022/01/08 01:55:28;;;;;;;;;;;;;;;;;;4987760;28;19972;-52
2022/01/08 01:57:54;;;;;;;;;;;;;;;;;;4990126;28;19929;-54
2022/01/08 02:00:19;;;;;;;;;;;;;;;;;;4987966;28;19976;-52
2022/01/08 02:02:44;;;;;;;;;;;;;;;;;;4988220;28;19929;-57
2022/01/08 02:05:10;;;;;;;;;;;;;;;;;;4988625;28;19922;-53
2022/01/08 02:07:35;;;;;;;;;;;;;;;;;;4987899;28;20010;-51
2022/01/08 02:10:01;;;;;;;;;;;;;;;;;;4990963;28;20390;-54
2022/01/08 02:12:26;;;;;;;;;;;;;;;;;;4994682;28;20263;-53
2022/01/08 02:14:52;;;;;;;;;;;;;;;;;;4992846;28;19922;-55
2022/01/08 02:17:17;;;;;;;;;;;;;;;;;;4987673;28;19950;-55
2022/01/08 02:20:02;;;;;;;;;;;;;;;;;;4967098;28;19933;-55
2022/01/08 02:22:28;;;;;;;;;;;;;;;;;;4964275;28;20362;-55
2022/01/08 02:24:53;;;;;;;;;;;;;;;;;;4966863;28;20115;-54
2022/01/08 02:27:18;;;;;;;;;;;;;;;;;;4967005;28;19972;-54
2022/01/08 02:29:44;;;;;;;;;;;;;;;;;;4984720;28;19926;-54
2022/01/08 02:32:09;;;;;;;;;;;;;;;;;;4985168;28;19922;-55
2022/01/08 02:34:35;;;;;;;;;;;;;;;;;;4984316;28;19918;-54
2022/01/08 02:37:00;;;;;;;;;;;;;;;;;;4985290;28;19971;-55
2022/01/08 02:39:26;;;;;;;;;;;;;;;;;;4984304;28;19926;-54
2022/01/08 02:41:56;;;;;;;;;;;;;;;;;;4988649;28;19925;-55
2022/01/08 02:44:21;;;;;;;;;;;;;;;;;;4984263;28;20008;-52
2022/01/08 02:46:47;;;;;;;;;;;;;;;;;;4985086;28;20028;-54
2022/01/08 02:49:12;;;;;;;;;;;;;;;;;;4986321;28;20422;-56
2022/01/08 02:51:37;;;;;;;;;;;;;;;;;;4981437;28;19926;-53
2022/01/08 02:54:03;;;;;;;;;;;;;;;;;;4962356;28;19921;-54
2022/01/08 02:56:28;;;;;;;;;;;;;;;;;;4970420;28;20173;-56
2022/01/08 02:58:54;;;;;;;;;;;;;;;;;;4968271;28;20004;-54
2022/01/08 03:01:19;;;;;;;;;;;;;;;;;;4968122;28;19921;-52
2022/01/08 03:03:45;;;;;;;;;;;;;;;;;;4968619;28;19921;-54
2022/01/08 03:06:10;;;;;;;;;;;;;;;;;;4969265;28;19996;-57
2022/01/08 03:08:35;;;;;;;;;;;;;;;;;;4968026;28;19926;-54
2022/01/08 03:11:01;;;;;;;;;;;;;;;;;;4968664;28;19921;-54
2022/01/08 03:13:26;;;;;;;;;;;;;;;;;;4965370;28;19945;-53
2022/01/08 03:15:51;;;;;;;;;;;;;;;;;;4967592;28;20464;-54
2022/01/08 03:18:17;;;;;;;;;;;;;;;;;;4965526;28;19934;-52
2022/01/08 03:21:00;;;;;;;;;;;;;;;;;;4968221;28;19980;-51
2022/01/08 03:23:33;;;;;;;;;;;;;;;;;;4967007;28;19956;-52
2022/01/08 03:25:59;;;;;;;;;;;;;;;;;;4975143;28;19972;-51
2022/01/08 03:28:24;;;;;;;;;;;;;;;;;;4965989;28;19925;-54
2022/01/08 03:30:50;;;;;;;;;;;;;;;;;;4967549;28;19925;-54
2022/01/08 03:33:15;;;;;;;;;;;;;;;;;;4968707;28;20013;-52
2022/01/08 03:35:40;;;;;;;;;;;;;;;;;;4974130;28;20436;-54
2022/01/08 03:38:06;;;;;;;;;;;;;;;;;;4974286;28;19957;-55
2022/01/08 03:40:31;;;;;;;;;;;;;;;;;;4972832;28;19922;-52
2022/01/08 03:42:57;;;;;;;;;;;;;;;;;;4971347;28;19926;-54
2022/01/08 03:45:22;;;;;;;;;;;;;;;;;;4969255;28;19925;-55
2022/01/08 03:50:16;;;;;;;;;;;;;;;;;;4969226;28;20060;-56
2022/01/08 03:52:41;;;;;;;;;;;;;;;;;;4969733;28;20025;-55
2022/01/08 03:55:07;;;;;;;;;;;;;;;;;;4969156;28;21802;-55
2022/01/08 03:57:32;;;;;;;;;;;;;;;;;;4965103;28;19934;-54
2022/01/08 03:59:58;;;;;;;;;;;;;;;;;;4970562;28;19926;-56
2022/01/08 04:02:23;;;;;;;;;;;;;;;;;;4970871;28;20501;-56
2022/01/08 04:04:48;;;;;;;;;;;;;;;;;;4972569;28;19941;-53
2022/01/08 04:07:14;;;;;;;;;;;;;;;;;;4972733;28;20052;-54
2022/01/08 04:09:39;;;;;;;;;;;;;;;;;;4970787;28;20005;-55
2022/01/08 04:12:06;;;;;;;;;;;;;;;;;;4971085;28;19937;-56
2022/01/08 04:14:42;;;;;;;;;;;;;;;;;;4970004;28;19937;-55
2022/01/08 04:17:08;;;;;;;;;;;;;;;;;;4973643;28;20999;-55
2022/01/08 04:19:33;;;;;;;;;;;;;;;;;;4970771;28;19930;-54
2022/01/08 04:21:59;;;;;;;;;;;;;;;;;;4972523;28;19929;-52
2022/01/08 04:24:24;;;;;;;;;;;;;;;;;;4970606;28;19926;-55
2022/01/08 04:26:49;;;;;;;;;;;;;;;;;;4970778;28;19957;-53
2022/01/08 04:29:15;;;;;;;;;;;;;;;;;;4969636;28;20372;-54
2022/01/08 04:31:40;;;;;;;;;;;;;;;;;;4971614;28;19956;-54
2022/01/08 04:34:06;;;;;;;;;;;;;;;;;;4971338;28;19926;-53
2022/01/08 04:36:31;;;;;;;;;;;;;;;;;;4967839;28;19922;-55
2022/01/08 04:38:57;;;;;;;;;;;;;;;;;;4976573;28;20422;-53
2022/01/08 04:41:22;;;;;;;;;;;;;;;;;;4970913;28;20362;-55
2022/01/08 04:43:48;;;;;;;;;;;;;;;;;;4970281;28;19922;-56
2022/01/08 04:46:13;;;;;;;;;;;;;;;;;;4970462;28;20450;-56
2022/01/08 04:48:39;;;;;;;;;;;;;;;;;;4970426;28;20497;-55
2022/01/08 04:51:04;;;;;;;;;;;;;;;;;;4970765;28;19926;-56
2022/01/08 04:53:30;;;;;;;;;;;;;;;;;;4969248;28;20548;-55
2022/01/08 04:55:55;;;;;;;;;;;;;;;;;;4969775;28;19932;-54
2022/01/08 04:58:20;;;;;;;;;;;;;;;;;;4969773;28;19937;-59
2022/01/08 05:00:46;;;;;;;;;;;;;;;;;;4971400;28;20398;-53
2022/01/08 05:03:11;;;;;;;;;;;;;;;;;;4971665;28;19933;-55
2022/01/08 05:05:37;;;;;;;;;;;;;;;;;;4970791;28;19926;-56
2022/01/08 05:08:02;;;;;;;;;;;;;;;;;;4971083;28;20001;-55
2022/01/08 05:10:33;;;;;;;;;;;;;;;;;;4967908;28;19933;-54
2022/01/08 05:13:03;;;;;;;;;;;;;;;;;;4969598;28;19922;-53
2022/01/08 05:15:28;;;;;;;;;;;;;;;;;;4970227;28;19922;-55
2022/01/08 05:17:55;;;;;;;;;;;;;;;;;;4969413;28;19957;-52
2022/01/08 05:20:20;;;;;;;;;;;;;;;;;;4968432;28;19961;-55
2022/01/08 05:22:52;;;;;;;;;;;;;;;;;;4968529;28;20002;-53
2022/01/08 05:25:17;;;;;;;;;;;;;;;;;;4970795;28;19968;-54
2022/01/08 05:27:42;;;;;;;;;;;;;;;;;;4977925;28;19985;-56
2022/01/08 05:30:08;;;;;;;;;;;;;;;;;;4969063;28;19929;-55
2022/01/08 05:32:34;;;;;;;;;;;;;;;;;;4968010;28;20414;-56
2022/01/08 05:34:59;;;;;;;;;;;;;;;;;;4970291;28;19973;-55
2022/01/08 05:37:25;;;;;;;;;;;;;;;;;;4967971;28;20353;-53
2022/01/08 05:39:51;;;;;;;;;;;;;;;;;;4970297;28;19929;-53
2022/01/08 05:42:16;;;;;;;;;;;;;;;;;;4965958;28;19933;-54
2022/01/08 05:44:42;;;;;;;;;;;;;;;;;;4968056;28;19922;-57
2022/01/08 05:47:07;;;;;;;;;;;;;;;;;;4971044;28;20407;-53
2022/01/08 05:49:33;;;;;;;;;;;;;;;;;;4968332;28;19964;-56
2022/01/08 05:51:58;;;;;;;;;;;;;;;;;;4968961;28;20083;-55
2022/01/08 05:54:23;;;;;;;;;;;;;;;;;;4969106;28;19922;-54
2022/01/08 05:56:50;;;;;;;;;;;;;;;;;;4969011;28;19989;-55
2022/01/08 05:59:15;;;;;;;;;;;;;;;;;;4969166;28;19930;-54
2022/01/08 06:01:41;;;;;;;;;;;;;;;;;;4967921;28;19933;-55
2022/01/08 06:04:06;;;;;;;;;;;;;;;;;;4969772;28;19922;-55
2022/01/08 06:06:31;;;;;;;;;;;;;;;;;;4978719;28;19961;-53
2022/01/08 06:08:57;;;;;;;;;;;;;;;;;;4983034;28;19976;-54
2022/01/08 06:11:22;;;;;;;;;;;;;;;;;;4969974;28;19926;-55
2022/01/08 06:13:48;;;;;;;;;;;;;;;;;;4970280;28;20622;-54
2022/01/08 06:16:13;;;;;;;;;;;;;;;;;;4977592;28;20485;-55
2022/01/08 06:18:38;;;;;;;;;;;;;;;;;;4968126;28;20368;-55
2022/01/08 06:21:04;;;;;;;;;;;;;;;;;;4967108;28;19929;-56
2022/01/08 06:23:29;;;;;;;;;;;;;;;;;;4966402;28;19926;-55
2022/01/08 06:25:55;;;;;;;;;;;;;;;;;;4969454;28;19922;-56
2022/01/08 06:28:20;;;;;;;;;;;;;;;;;;4968113;28;19926;-52
2022/01/08 06:30:47;;;;;;;;;;;;;;;;;;4969269;28;19932;-53
2022/01/08 06:33:12;;;;;;;;;;;;;;;;;;4969872;28;19933;-55
2022/01/08 06:35:38;;;;;;;;;;;;;;;;;;4968762;28;20013;-52
2022/01/08 06:38:03;;;;;;;;;;;;;;;;;;4971171;28;20037;-55
2022/01/08 06:40:28;;;;;;;;;;;;;;;;;;4969127;28;19929;-55
2022/01/08 06:42:54;;;;;;;;;;;;;;;;;;4969731;28;19957;-54
2022/01/08 06:45:19;;;;;;;;;;;;;;;;;;4974125;28;20351;-52
2022/01/08 06:47:45;;;;;;;;;;;;;;;;;;4969845;28;19921;-54
2022/01/08 06:50:11;;;;;;;;;;;;;;;;;;4970366;28;19952;-53
2022/01/08 06:52:36;;;;;;;;;;;;;;;;;;4968251;28;19922;-53
2022/01/08 06:55:01;;;;;;;;;;;;;;;;;;4969931;28;19929;-54
2022/01/08 06:57:27;;;;;;;;;;;;;;;;;;4968907;28;20763;-55
2022/01/08 06:59:52;;;;;;;;;;;;;;;;;;4968831;28;19936;-55
2022/01/08 07:02:18;;;;;;;;;;;;;;;;;;4966587;28;19929;-54
2022/01/08 07:04:44;;;;;;;;;;;;;;;;;;4969258;28;19926;-52
2022/01/08 07:07:09;;;;;;;;;;;;;;;;;;4969460;28;19944;-56
2022/01/08 07:09:34;;;;;;;;;;;;;;;;;;4973902;28;20020;-53
2022/01/08 07:12:00;;;;;;;;;;;;;;;;;;4970100;28;19984;-52
2022/01/08 07:14:25;;;;;;;;;;;;;;;;;;4969009;28;19969;-56
2022/01/08 07:16:51;;;;;;;;;;;;;;;;;;4975788;28;19967;-54
2022/01/08 07:19:18;;;;;;;;;;;;;;;;;;4968298;28;19930;-55
2022/01/08 07:21:43;;;;;;;;;;;;;;;;;;4972102;28;19929;-56
2022/01/08 07:24:09;;;;;;;;;;;;;;;;;;4968838;28;20357;-55
2022/01/08 07:26:34;;;;;;;;;;;;;;;;;;4967050;28;19921;-56
2022/01/08 07:28:59;;;;;;;;;;;;;;;;;;4968326;28;19933;-55
2022/01/08 07:31:25;;;;;;;;;;;;;;;;;;4966055;28;19926;-54
2022/01/08 07:33:50;;;;;;;;;;;;;;;;;;4967130;28;20342;-56
2022/01/08 07:36:16;;;;;;;;;;;;;;;;;;4968795;28;19926;-52
2022/01/08 07:38:41;;;;;;;;;;;;;;;;;;4974063;28;19957;-55
2022/01/08 07:41:07;;;;;;;;;;;;;;;;;;4981697;28;19926;-56
2022/01/08 07:43:32;;;;;;;;;;;;;;;;;;4975016;28;20004;-56
2022/01/08 07:45:58;;;;;;;;;;;;;;;;;;4973120;28;20068;-53
2022/01/08 07:48:23;;;;;;;;;;;;;;;;;;4976093;28;19980;-53
2022/01/08 07:50:48;;;;;;;;;;;;;;;;;;4983755;28;19949;-55
2022/01/08 07:53:14;;;;;;;;;;;;;;;;;;4990817;28;20146;-54
2022/01/08 07:55:39;;;;;;;;;;;;;;;;;;4982796;28;19941;-55
2022/01/08 07:58:05;;;;;;;;;;;;;;;;;;4983170;28;19945;-52
2022/01/08 08:00:30;;;;;;;;;;;;;;;;;;4980076;28;19922;-57
2022/01/08 08:02:55;;;;;;;;;;;;;;;;;;4979589;28;19926;-54
2022/01/08 08:05:24;;;;;;;;;;;;;;;;;;4970298;28;20390;-56
2022/01/08 08:07:49;;;;;;;;;;;;;;;;;;4969346;28;19929;-53
2022/01/08 08:10:22;;;;;;;;;;;;;;;;;;4967177;28;19936;-56
2022/01/08 08:12:47;;;;;;;;;;;;;;;;;;4975728;28;19926;-55
2022/01/08 08:15:15;;;;;;;;;;;;;;;;;;4968669;28;19991;-53
2022/01/08 08:17:40;;;;;;;;;;;;;;;;;;4969157;28;19933;-54
2022/01/08 08:20:05;;;;;;;;;;;;;;;;;;4966180;28;20303;-54
2022/01/08 08:22:31;;;;;;;;;;;;;;;;;;4967600;28;20716;-52
2022/01/08 08:24:56;;;;;;;;;;;;;;;;;;4969930;28;19929;-54
2022/01/08 08:27:22;;;;;;;;;;;;;;;;;;4975777;28;19930;-55
2022/01/08 08:29:47;;;;;;;;;;;;;;;;;;4968303;28;19926;-52
2022/01/08 08:32:12;;;;;;;;;;;;;;;;;;4959600;28;19921;-55
2022/01/08 08:34:38;;;;;;;;;;;;;;;;;;4967416;28;19933;-52
2022/01/08 08:37:03;;;;;;;;;;;;;;;;;;4969496;28;20021;-52
2022/01/08 08:39:29;;;;;;;;;;;;;;;;;;4983720;28;19991;-54
2022/01/08 08:41:54;;;;;;;;;;;;;;;;;;4969204;28;20004;-55
2022/01/08 08:44:20;;;;;;;;;;;;;;;;;;4968904;28;20350;-55
2022/01/08 08:46:45;;;;;;;;;;;;;;;;;;4968240;28;19925;-54
2022/01/08 08:49:10;;;;;;;;;;;;;;;;;;4971154;28;19992;-56
2022/01/08 08:51:36;;;;;;;;;;;;;;;;;;4968804;28;19922;-53
2022/01/08 08:54:01;;;;;;;;;;;;;;;;;;4971682;28;19926;-55
2022/01/08 08:56:28;;;;;;;;;;;;;;;;;;4970742;28;19953;-54
2022/01/08 08:58:54;;;;;;;;;;;;;;;;;;4972154;28;19926;-55
2022/01/08 09:01:19;;;;;;;;;;;;;;;;;;4969489;28;20341;-56
2022/01/08 09:03:45;;;;;;;;;;;;;;;;;;4971436;28;19921;-56
2022/01/08 09:06:10;;;;;;;;;;;;;;;;;;4972986;28;19934;-55
2022/01/08 09:08:36;;;;;;;;;;;;;;;;;;4972075;28;19921;-56
2022/01/08 09:11:01;;;;;;;;;;;;;;;;;;4970069;28;19982;-55
2022/01/08 09:13:28;;;;;;;;;;;;;;;;;;4969561;28;20402;-54
2022/01/08 09:15:53;;;;;;;;;;;;;;;;;;4970904;28;20540;-52
2022/01/08 09:18:19;;;;;;;;;;;;;;;;;;4970254;28;20033;-54
2022/01/08 09:20:44;;;;;;;;;;;;;;;;;;4970002;28;20021;-54
2022/01/08 09:23:10;;;;;;;;;;;;;;;;;;4970509;28;19980;-55
2022/01/08 09:25:35;;;;;;;;;;;;;;;;;;4970501;28;19926;-55
2022/01/08 09:28:00;;;;;;;;;;;;;;;;;;4972408;28;20356;-54
2022/01/08 09:30:26;;;;;;;;;;;;;;;;;;4970884;28;20363;-55
2022/01/08 09:32:51;;;;;;;;;;;;;;;;;;4970900;28;19933;-52
2022/01/08 09:35:17;;;;;;;;;;;;;;;;;;4970800;28;19930;-54
2022/01/08 09:37:42;;;;;;;;;;;;;;;;;;4969729;28;19930;-57
2022/01/08 09:40:08;;;;;;;;;;;;;;;;;;4969791;28;20585;-55
2022/01/08 09:42:33;;;;;;;;;;;;;;;;;;4971284;28;20362;-55
2022/01/08 09:44:59;;;;;;;;;;;;;;;;;;4971054;28;20281;-55
2022/01/08 09:47:24;;;;;;;;;;;;;;;;;;4970416;28;19955;-53
2022/01/08 09:49:50;;;;;;;;;;;;;;;;;;4962118;28;19922;-54
2022/01/08 09:52:15;;;;;;;;;;;;;;;;;;4970560;28;20394;-55
2022/01/08 09:54:41;;;;;;;;;;;;;;;;;;4969881;28;19926;-56
2022/01/08 09:57:06;;;;;;;;;;;;;;;;;;4977402;28;20228;-55
2022/01/08 09:59:31;;;;;;;;;;;;;;;;;;4969839;28;19941;-54
2022/01/08 10:01:58;;;;;;;;;;;;;;;;;;4968799;28;19977;-53
2022/01/08 10:04:23;;;;;;;;;;;;;;;;;;4969102;28;20354;-54
2022/01/08 10:06:49;;;;;;;;;;;;;;;;;;4970482;28;19922;-55
2022/01/08 10:09:14;;;;;;;;;;;;;;;;;;4970858;28;19929;-54
2022/01/08 10:11:40;;;;;;;;;;;;;;;;;;4968952;28;19922;-54
2022/01/08 10:14:14;;;;;;;;;;;;;;;;;;4969885;28;19975;-56
2022/01/08 10:19:25;;;;;;;;;;;;;;;;;;4969461;28;19981;-54
2022/01/08 10:21:51;;;;;;;;;;;;;;;;;;4970268;28;19922;-53
2022/01/08 10:24:16;;;;;;;;;;;;;;;;;;4970407;28;20887;-52
2022/01/08 10:26:42;;;;;;;;;;;;;;;;;;4970448;28;19926;-54
2022/01/08 10:29:07;;;;;;;;;;;;;;;;;;4987074;28;19926;-54
2022/01/08 10:31:33;;;;;;;;;;;;;;;;;;4987832;28;19926;-53
2022/01/08 10:33:58;;;;;;;;;;;;;;;;;;4990842;28;19957;-55
2022/01/08 10:36:24;;;;;;;;;;;;;;;;;;4986849;28;19921;-53
2022/01/08 10:38:49;;;;;;;;;;;;;;;;;;4985033;28;19930;-54
2022/01/08 10:41:15;;;;;;;;;;;;;;;;;;4976137;28;20035;-54
2022/01/08 10:43:40;;;;;;;;;;;;;;;;;;4973375;28;19926;-54
2022/01/08 10:46:06;;;;;;;;;;;;;;;;;;4972808;28;20430;-52
2022/01/08 10:48:31;;;;;;;;;;;;;;;;;;4971507;28;20025;-55
2022/01/08 10:50:56;;;;;;;;;;;;;;;;;;4970228;28;20859;-54
2022/01/08 10:53:22;;;;;;;;;;;;;;;;;;4967840;28;19932;-55
2022/01/08 10:55:47;;;;;;;;;;;;;;;;;;4969886;28;19926;-52
2022/01/08 10:58:13;;;;;;;;;;;;;;;;;;4965914;28;20283;-55
2022/01/08 11:00:38;;;;;;;;;;;;;;;;;;4967466;28;20419;-55
2022/01/08 11:03:03;;;;;;;;;;;;;;;;;;4969643;28;19926;-54
2022/01/08 11:05:29;;;;;;;;;;;;;;;;;;4975127;28;20008;-55
2022/01/08 11:07:54;;;;;;;;;;;;;;;;;;4969636;28;19964;-52
2022/01/08 11:10:21;;;;;;;;;;;;;;;;;;4967220;28;20338;-55
2022/01/08 11:12:47;;;;;;;;;;;;;;;;;;4967999;28;19922;-55
2022/01/08 11:17:38;;;;;;;;;;;;;;;;;;4976515;28;19949;-55
2022/01/08 11:20:04;;;;;;;;;;;;;;;;;;4968715;28;19973;-52
2022/01/08 11:22:29;;;;;;;;;;;;;;;;;;4968782;28;19922;-55
2022/01/08 11:24:54;;;;;;;;;;;;;;;;;;4968830;28;20811;-54
2022/01/08 11:27:20;;;;;;;;;;;;;;;;;;4967405;28;19921;-54
2022/01/08 11:29:45;;;;;;;;;;;;;;;;;;4966623;28;19926;-55
2022/01/08 11:32:11;;;;;;;;;;;;;;;;;;4975485;28;19926;-53
2022/01/08 11:34:38;;;;;;;;;;;;;;;;;;4964778;28;19977;-55
2022/01/08 11:37:03;;;;;;;;;;;;;;;;;;4968349;28;20636;-54
2022/01/08 11:39:29;;;;;;;;;;;;;;;;;;4967465;28;19929;-55
2022/01/08 11:41:54;;;;;;;;;;;;;;;;;;4974185;28;19937;-54
2022/01/08 11:44:20;;;;;;;;;;;;;;;;;;4967886;28;19929;-55
2022/01/08 11:46:45;;;;;;;;;;;;;;;;;;4968213;28;19929;-53
2022/01/08 11:49:10;;;;;;;;;;;;;;;;;;4968727;28;19921;-56
2022/01/08 11:51:36;;;;;;;;;;;;;;;;;;4966156;28;19976;-54
2022/01/08 11:54:03;;;;;;;;;;;;;;;;;;4966875;28;20029;-55
2022/01/08 11:56:28;;;;;;;;;;;;;;;;;;4967494;28;21799;-55
2022/01/08 11:58:54;;;;;;;;;;;;;;;;;;4967547;28;19930;-55
2022/01/08 12:01:19;;;;;;;;;;;;;;;;;;4967555;28;20020;-55
2022/01/08 12:03:45;;;;;;;;;;;;;;;;;;4967471;28;20014;-55
2022/01/08 12:06:10;;;;;;;;;;;;;;;;;;4958479;28;19946;-54
2022/01/08 12:08:44;;;;;;;;;;;;;;;;;;4974089;28;19923;-53
2022/01/08 12:11:09;;;;;;;;;;;;;;;;;;4967487;28;19995;-53
2022/01/08 12:13:35;;;;;;;;;;;;;;;;;;4966753;28;19926;-52
2022/01/08 12:16:00;;;;;;;;;;;;;;;;;;4972450;28;19984;-53
2022/01/08 12:18:29;;;;;;;;;;;;;;;;;;4966697;28;19925;-56
2022/01/08 12:20:55;;;;;;;;;;;;;;;;;;4970289;28;19966;-56
2022/01/08 12:23:20;;;;;;;;;;;;;;;;;;4974286;28;19968;-55
2022/01/08 12:25:45;;;;;;;;;;;;;;;;;;4976547;28;19929;-56
2022/01/08 12:28:11;;;;;;;;;;;;;;;;;;4982189;28;20543;-56
2022/01/08 12:30:37;;;;;;;;;;;;;;;;;;4971336;28;20012;-54
2022/01/08 12:33:03;;;;;;;;;;;;;;;;;;4972470;28;19933;-56
2022/01/08 12:35:36;;;;;;;;;;;;;;;;;;4971157;28;19922;-55
2022/01/08 12:38:02;;;;;;;;;;;;;;;;;;4970264;28;20699;-55
2022/01/08 12:40:27;;;;;;;;;;;;;;;;;;4970876;28;20012;-55
2022/01/08 12:42:53;;;;;;;;;;;;;;;;;;4972566;28;20429;-55
2022/01/08 12:45:19;;;;;;;;;;;;;;;;;;4969820;28;19925;-55
2022/01/08 12:47:45;;;;;;;;;;;;;;;;;;4970580;28;19930;-53
2022/01/08 12:50:10;;;;;;;;;;;;;;;;;;4971825;28;19926;-56
2022/01/08 12:52:36;;;;;;;;;;;;;;;;;;4971426;28;19978;-54
2022/01/08 12:55:01;;;;;;;;;;;;;;;;;;4969840;28;20914;-53
2022/01/08 12:57:27;;;;;;;;;;;;;;;;;;4969805;28;19922;-54
2022/01/08 12:59:52;;;;;;;;;;;;;;;;;;4969188;28;19961;-52
2022/01/08 13:02:17;;;;;;;;;;;;;;;;;;4971099;28;19926;-52
2022/01/08 13:04:43;;;;;;;;;;;;;;;;;;4974571;28;19965;-55
2022/01/08 13:07:08;;;;;;;;;;;;;;;;;;4969136;28;19926;-55
2022/01/08 13:09:34;;;;;;;;;;;;;;;;;;4968899;28;19921;-53
2022/01/08 13:12:01;;;;;;;;;;;;;;;;;;4971149;28;19926;-56
2022/01/08 13:14:30;;;;;;;;;;;;;;;;;;4970663;28;20346;-55
2022/01/08 13:16:55;;;;;;;;;;;;;;;;;;4971626;28;20398;-55
2022/01/08 13:19:21;;;;;;;;;;;;;;;;;;4968408;28;19934;-53
2022/01/08 13:21:46;;;;;;;;;;;;;;;;;;4970370;28;19994;-55
2022/01/08 13:24:13;;;;;;;;;;;;;;;;;;4976312;28;20762;-55
2022/01/08 13:26:40;;;;;;;;;;;;;;;;;;4968158;28;19929;-55
2022/01/08 13:29:05;;;;;;;;;;;;;;;;;;4967534;28;19972;-53
2022/01/08 13:31:31;;;;;;;;;;;;;;;;;;4965859;28;19929;-54
2022/01/08 13:33:56;;;;;;;;;;;;;;;;;;4969875;28;19976;-53
2022/01/08 13:36:22;;;;;;;;;;;;;;;;;;4974566;28;19926;-54
2022/01/08 13:38:47;;;;;;;;;;;;;;;;;;4968011;28;19960;-52
2022/01/08 13:41:13;;;;;;;;;;;;;;;;;;4968112;28;19933;-55
2022/01/08 13:43:38;;;;;;;;;;;;;;;;;;4967707;28;19925;-56
2022/01/08 13:46:03;;;;;;;;;;;;;;;;;;4967795;28;19932;-53
2022/01/08 13:48:29;;;;;;;;;;;;;;;;;;4969379;28;20322;-52
2022/01/08 13:50:58;;;;;;;;;;;;;;;;;;4967683;28;19922;-54
2022/01/08 13:53:24;;;;;;;;;;;;;;;;;;4968209;28;19953;-55
2022/01/08 13:55:50;;;;;;;;;;;;;;;;;;4969313;28;19926;-52
2022/01/08 13:58:15;;;;;;;;;;;;;;;;;;4967671;28;19937;-55
2022/01/08 14:00:41;;;;;;;;;;;;;;;;;;4968529;28;19933;-55
2022/01/08 14:03:06;;;;;;;;;;;;;;;;;;4969025;28;19937;-54
2022/01/08 14:05:31;;;;;;;;;;;;;;;;;;4968297;28;19965;-53
2022/01/08 14:07:57;;;;;;;;;;;;;;;;;;4968896;28;19926;-54
2022/01/08 14:10:22;;;;;;;;;;;;;;;;;;4967999;28;22231;-52
2022/01/08 14:12:48;;;;;;;;;;;;;;;;;;4967624;28;20418;-51
2022/01/08 14:15:13;;;;;;;;;;;;;;;;;;4967384;28;20423;-55
2022/01/08 14:17:40;;;;;;;;;;;;;;;;;;4967821;28;19926;-51
2022/01/08 14:20:05;;;;;;;;;;;;;;;;;;4967460;28;21732;-54
2022/01/08 14:22:31;;;;;;;;;;;;;;;;;;4975144;28;19929;-50
2022/01/08 14:24:56;;;;;;;;;;;;;;;;;;4969440;28;20012;-52
2022/01/08 14:27:22;;;;;;;;;;;;;;;;;;4966944;28;20355;-56
2022/01/08 14:29:48;;;;;;;;;;;;;;;;;;4969348;28;20498;-54
2022/01/08 14:32:13;;;;;;;;;;;;;;;;;;4969249;28;19930;-53
2022/01/08 14:34:39;;;;;;;;;;;;;;;;;;4977414;28;19954;-54
2022/01/08 14:37:04;;;;;;;;;;;;;;;;;;4971190;28;20789;-55
2022/01/08 14:39:30;;;;;;;;;;;;;;;;;;4967687;28;19941;-54
2022/01/08 14:41:55;;;;;;;;;;;;;;;;;;4975960;28;19926;-54
2022/01/08 14:44:20;;;;;;;;;;;;;;;;;;4967426;28;19940;-55
2022/01/08 14:46:46;;;;;;;;;;;;;;;;;;4967758;28;20015;-55
2022/01/08 14:49:12;;;;;;;;;;;;;;;;;;4965861;28;19988;-54
2022/01/08 14:51:37;;;;;;;;;;;;;;;;;;4967760;28;20013;-54
2022/01/08 14:54:08;;;;;;;;;;;;;;;;;;4975602;28;20390;-56
2022/01/08 14:56:34;;;;;;;;;;;;;;;;;;4969478;28;19949;-55
2022/01/08 14:58:59;;;;;;;;;;;;;;;;;;4972135;28;20538;-55
2022/01/08 15:01:24;;;;;;;;;;;;;;;;;;4966300;28;19922;-52
2022/01/08 15:03:50;;;;;;;;;;;;;;;;;;4974603;28;19922;-53
2022/01/08 15:06:16;;;;;;;;;;;;;;;;;;4967059;28;19962;-55
2022/01/08 15:08:41;;;;;;;;;;;;;;;;;;4969045;28;19926;-55
2022/01/08 15:11:07;;;;;;;;;;;;;;;;;;4972896;28;19922;-53
2022/01/08 15:13:32;;;;;;;;;;;;;;;;;;4968038;28;21048;-56
2022/01/08 15:15:58;;;;;;;;;;;;;;;;;;4967485;28;19926;-53
2022/01/08 15:18:23;;;;;;;;;;;;;;;;;;4966805;28;19930;-55
2022/01/08 15:20:48;;;;;;;;;;;;;;;;;;4967066;28;19929;-55
2022/01/08 15:23:14;;;;;;;;;;;;;;;;;;4968577;28;19929;-53
2022/01/08 15:25:39;;;;;;;;;;;;;;;;;;4967601;28;20343;-53
2022/01/08 15:28:04;;;;;;;;;;;;;;;;;;4968639;28;19946;-54
2022/01/08 15:30:30;;;;;;;;;;;;;;;;;;4967634;28;19926;-52
2022/01/08 15:32:57;;;;;;;;;;;;;;;;;;4969033;28;19982;-54
2022/01/08 15:35:22;;;;;;;;;;;;;;;;;;4967955;28;20009;-55
2022/01/08 15:37:48;;;;;;;;;;;;;;;;;;4968985;28;20794;-52
2022/01/08 15:40:13;;;;;;;;;;;;;;;;;;4983283;28;19928;-52
2022/01/08 15:42:38;;;;;;;;;;;;;;;;;;4983814;28;20524;-55
2022/01/08 15:45:04;;;;;;;;;;;;;;;;;;4984701;28;19968;-53
2022/01/08 15:47:29;;;;;;;;;;;;;;;;;;4984506;28;20610;-51
2022/01/08 15:49:55;;;;;;;;;;;;;;;;;;4984104;28;20021;-53
2022/01/08 15:52:20;;;;;;;;;;;;;;;;;;4983601;28;19922;-55
2022/01/08 15:54:46;;;;;;;;;;;;;;;;;;4986943;28;19922;-55
2022/01/08 15:57:12;;;;;;;;;;;;;;;;;;4988114;28;19960;-54
2022/01/08 15:59:37;;;;;;;;;;;;;;;;;;4986676;28;20048;-54
2022/01/08 16:02:03;;;;;;;;;;;;;;;;;;4988387;28;20020;-54
2022/01/08 16:04:28;;;;;;;;;;;;;;;;;;4987110;28;19972;-54
2022/01/08 16:06:53;;;;;;;;;;;;;;;;;;4987630;28;20016;-52
2022/01/08 16:09:19;;;;;;;;;;;;;;;;;;4985792;28;19965;-54
2022/01/08 16:11:44;;;;;;;;;;;;;;;;;;4986608;28;20382;-55
2022/01/08 16:14:10;;;;;;;;;;;;;;;;;;4988193;28;19922;-53
2022/01/08 16:16:35;;;;;;;;;;;;;;;;;;4969714;28;19926;-55
2022/01/08 16:19:00;;;;;;;;;;;;;;;;;;4969315;28;20399;-55
2022/01/08 16:21:26;;;;;;;;;;;;;;;;;;4968228;28;19929;-56
2022/01/08 16:23:52;;;;;;;;;;;;;;;;;;4978616;28;19970;-55
2022/01/08 16:26:17;;;;;;;;;;;;;;;;;;4970974;28;20820;-56
2022/01/08 16:28:42;;;;;;;;;;;;;;;;;;4959220;28;19930;-56
2022/01/08 16:31:08;;;;;;;;;;;;;;;;;;4988881;28;19926;-55
2022/01/08 16:33:33;;;;;;;;;;;;;;;;;;4990434;28;20382;-56
2022/01/08 16:35:58;;;;;;;;;;;;;;;;;;4990683;28;19964;-53
2022/01/08 16:38:24;;;;;;;;;;;;;;;;;;4991076;28;19940;-56
2022/01/08 16:40:49;;;;;;;;;;;;;;;;;;4978237;28;19992;-56
2022/01/08 16:43:15;;;;;;;;;;;;;;;;;;4988998;28;19921;-55
2022/01/08 16:45:40;;;;;;;;;;;;;;;;;;4989902;28;20878;-53
2022/01/08 16:48:06;;;;;;;;;;;;;;;;;;4989812;28;19922;-55
2022/01/08 16:50:31;;;;;;;;;;;;;;;;;;4988626;28;19932;-56
2022/01/08 16:52:56;;;;;;;;;;;;;;;;;;4988228;28;19921;-56
2022/01/08 16:55:22;;;;;;;;;;;;;;;;;;4994798;28;19918;-55
2022/01/08 16:57:47;;;;;;;;;;;;;;;;;;4989060;28;19929;-52
2022/01/08 17:00:15;;;;;;;;;;;;;;;;;;4988177;28;19922;-52